Time;durP1;ratioP1;P1;durP2;ratioP2;P2;SDS_P1;SDS_P2;PMS_P1;PMS_P2;Temp;Humidity;BMP_temperature;BMP_pressure;BME280_temperature;BME280_humidity;BME280_pressure;Samples;Min_cycle;Max_cycle;Signal;HPM_P1;HPM_P2
2022/03/06 00:00:46;522485.00;1.74;900.55;80546.00;0.27;139.98;;;;;9.40;1.00;;;;;;2246727;61;1066;-84
2022/03/06 00:03:15;584494.00;1.95;1007.45;89919.00;0.30;156.17;;;;;9.50;1.00;;;;;;2246397;61;1141;-83
2022/03/06 00:05:42;516798.00;1.72;890.75;83031.00;0.28;144.27;;;;;9.20;1.00;;;;;;2246562;61;1154;-83
2022/03/06 00:08:09;618269.00;2.06;1065.78;92964.00;0.31;161.43;;;;;9.40;1.00;;;;;;2246533;61;2002;-83
2022/03/06 00:10:36;482641.00;1.61;831.94;82724.00;0.28;143.74;;;;;9.30;1.00;;;;;;2246898;61;1074;-83
2022/03/06 00:13:03;514116.00;1.71;886.13;80497.00;0.27;139.90;;;;;9.30;1.00;;;;;;2247047;61;1148;-83
2022/03/06 00:15:30;461371.00;1.54;795.34;83225.00;0.28;144.61;;;;;9.30;1.00;;;;;;2246823;61;1242;-83
2022/03/06 00:17:57;524691.00;1.75;904.35;84451.00;0.28;146.73;;;;;9.40;1.00;;;;;;2246274;61;1353;-82
2022/03/06 00:20:25;495147.00;1.65;853.47;84891.00;0.28;147.49;;;;;9.60;1.00;;;;;;2246975;61;1140;-83
2022/03/06 00:22:52;583513.00;1.95;1005.76;114615.00;0.38;198.79;;;;;9.70;1.00;;;;;;2246737;61;1185;-82
2022/03/06 00:25:19;554780.00;1.85;956.20;97881.00;0.33;169.91;;;;;9.50;1.00;;;;;;2246640;61;1127;-83
2022/03/06 00:27:46;630193.00;2.10;1086.38;87160.00;0.29;151.40;;;;;9.30;1.00;;;;;;2246367;61;2005;-83
2022/03/06 00:30:13;383124.00;1.28;660.80;88920.00;0.30;154.44;;;;;9.20;1.00;;;;;;2246522;61;1114;-83
2022/03/06 00:32:40;452801.00;1.51;780.60;83802.00;0.28;145.60;;;;;9.40;1.00;;;;;;2246498;61;1168;-83
2022/03/06 00:35:08;543666.00;1.81;937.04;104533.00;0.35;181.40;;;;;9.20;1.00;;;;;;2246638;61;1088;-83
2022/03/06 00:37:37;455967.00;1.52;786.05;90174.00;0.30;156.61;;;;;9.10;1.00;;;;;;2246670;61;1231;-83
2022/03/06 00:40:06;482577.00;1.61;831.83;83019.00;0.28;144.25;;;;;9.40;1.00;;;;;;2246655;61;1407;-82
2022/03/06 00:42:33;523943.00;1.75;903.06;91622.00;0.31;159.11;;;;;9.40;1.00;;;;;;2246740;61;1181;-83
2022/03/06 00:45:00;443489.00;1.48;764.58;80666.00;0.27;140.19;;;;;9.30;1.00;;;;;;2246905;61;1211;-83
2022/03/06 00:47:27;392135.00;1.31;676.28;88204.00;0.29;153.21;;;;;9.40;1.00;;;;;;2246847;61;2025;-83
2022/03/06 00:49:53;425539.00;1.42;733.71;98009.00;0.33;170.14;;;;;9.20;1.00;;;;;;2247155;61;1060;-82
2022/03/06 00:52:20;603494.00;2.01;1040.25;86707.00;0.29;150.62;;;;;9.10;1.00;;;;;;2247292;61;1129;-83
2022/03/06 00:54:49;404048.00;1.35;696.76;84447.00;0.28;146.72;;;;;9.00;1.00;;;;;;2247180;61;1191;-82
2022/03/06 00:57:16;603545.00;2.01;1040.34;86611.00;0.29;150.46;;;;;8.90;1.00;;;;;;2246839;61;1460;-83
2022/03/06 00:59:43;384377.00;1.28;662.95;94712.00;0.32;164.44;;;;;8.70;1.00;;;;;;2246009;61;1152;-83
2022/03/06 01:02:10;447975.00;1.49;772.30;85801.00;0.29;149.06;;;;;8.80;1.00;;;;;;2245887;61;1073;-82
2022/03/06 01:04:37;436528.00;1.46;752.61;84605.00;0.28;146.99;;;;;8.10;1.00;;;;;;2245786;61;1115;-81
2022/03/06 01:07:05;445891.00;1.49;768.71;73449.00;0.24;127.72;;;;;7.40;1.00;;;;;;2245604;61;1367;-82
2022/03/06 01:09:32;848186.00;2.83;1465.29;119665.00;0.40;207.50;;;;;6.10;1.00;;;;;;2246414;61;1955;-82
2022/03/06 01:12:00;615329.00;2.05;1060.70;92899.00;0.31;161.31;;;;;4.70;1.00;;;;;;2246499;61;1103;-82
2022/03/06 01:14:27;712199.00;2.37;1228.40;89631.00;0.30;155.67;;;;;4.50;1.00;;;;;;2246462;61;1121;-83
2022/03/06 01:16:54;452440.00;1.51;779.98;0.00;0.00;0.62;;;;;4.60;1.00;;;;;;2246489;61;1325;-82
2022/03/06 01:19:21;117432832.00;391.44;65599048.00;116913408.00;389.71;64731660.00;;;;;5.30;1.00;;;;;;2246560;61;1191;-82
2022/03/06 01:21:48;357968.00;1.19;617.56;0.00;0.00;0.62;;;;;5.60;1.00;;;;;;2246330;61;1140;-82
2022/03/06 01:24:15;420614.00;1.40;725.25;0.00;0.00;0.62;;;;;5.40;1.00;;;;;;2246533;61;1176;-82
2022/03/06 01:26:42;469335.00;1.56;809.05;0.00;0.00;0.62;;;;;5.40;1.00;;;;;;2246202;61;1346;-82
2022/03/06 01:29:10;652271.00;2.17;1124.57;0.00;0.00;0.62;;;;;5.10;1.00;;;;;;2246451;61;1936;-82
2022/03/06 01:31:37;526877.00;1.76;908.11;0.00;0.00;0.62;;;;;5.30;1.00;;;;;;2246471;61;1088;-82
2022/03/06 01:34:05;442914.00;1.48;763.59;0.00;0.00;0.62;;;;;4.90;1.00;;;;;;2246391;61;1039;-82
2022/03/06 01:36:32;573172.00;1.91;987.92;14495.00;0.05;25.74;;;;;4.00;1.00;;;;;;2246921;61;1355;-82
2022/03/06 01:38:59;516738.00;1.72;890.65;0.00;0.00;0.62;;;;;3.60;1.00;;;;;;2246466;61;1144;-82
2022/03/06 01:41:26;545720.00;1.82;940.58;0.00;0.00;0.62;;;;;2.80;1.00;;;;;;2246662;61;1081;-82
2022/03/06 01:43:53;564192.00;1.88;972.43;0.00;0.00;0.62;;;;;2.40;1.00;;;;;;2246672;61;1052;-82
2022/03/06 01:46:21;635303.00;2.12;1095.22;0.00;0.00;0.62;;;;;2.30;1.00;;;;;;2246875;61;1223;-82
2022/03/06 01:48:48;545491.00;1.82;940.19;0.00;0.00;0.62;;;;;2.70;1.00;;;;;;2246544;61;1940;-82
2022/03/06 01:51:15;500681.00;1.67;863.00;0.00;0.00;0.62;;;;;3.20;1.00;;;;;;2246677;61;1163;-82
2022/03/06 01:53:42;507673.00;1.69;875.04;0.00;0.00;0.62;;;;;2.90;1.00;;;;;;2246146;61;1165;-82
2022/03/06 01:56:11;526294.00;1.75;907.11;0.00;0.00;0.62;;;;;3.50;1.00;;;;;;2246817;61;1112;-82
2022/03/06 01:58:38;382708.00;1.28;660.08;0.00;0.00;0.62;;;;;3.80;1.00;;;;;;2246452;61;1267;-82
2022/03/06 02:01:06;473333.00;1.58;815.92;0.00;0.00;0.62;;;;;3.90;1.00;;;;;;2246264;61;1179;-82
2022/03/06 02:03:34;685272.00;2.28;1181.71;0.00;0.00;0.62;;;;;2.90;1.00;;;;;;2246533;61;1542;-84
2022/03/06 02:06:01;475062.00;1.58;818.90;0.00;0.00;0.62;;;;;2.00;1.00;;;;;;2246432;61;1198;-82
2022/03/06 02:08:28;548928.00;1.83;946.11;0.00;0.00;0.62;;;;;2.40;1.00;;;;;;2246364;61;1924;-82
2022/03/06 02:10:56;460275.00;1.53;793.46;0.00;0.00;0.62;;;;;2.00;1.00;;;;;;2246482;61;1124;-82
2022/03/06 02:13:23;575541.00;1.92;992.01;0.00;0.00;0.62;;;;;1.80;1.00;;;;;;2246843;61;1251;-82
2022/03/06 02:15:50;554927.00;1.85;956.45;0.00;0.00;0.62;;;;;1.60;1.00;;;;;;2247187;61;1269;-82
2022/03/06 02:18:19;400527.00;1.34;690.71;0.00;0.00;0.62;;;;;1.80;1.00;;;;;;2246660;61;1353;-83
2022/03/06 02:20:48;393517.00;1.31;678.66;0.00;0.00;0.62;;;;;2.30;1.00;;;;;;2247028;61;1122;-83
2022/03/06 02:23:16;499960.00;1.67;861.75;0.00;0.00;0.62;;;;;1.80;1.00;;;;;;2247038;61;1153;-82
2022/03/06 02:25:43;513555.00;1.71;885.16;0.00;0.00;0.62;;;;;1.50;1.00;;;;;;2246760;61;1236;-82
2022/03/06 02:28:11;436476.00;1.45;752.52;0.00;0.00;0.62;;;;;1.50;1.00;;;;;;2247210;61;2021;-83
2022/03/06 02:30:40;608846.00;2.03;1049.50;0.00;0.00;0.62;;;;;2.50;1.00;;;;;;2247253;61;1128;-82
2022/03/06 02:33:10;374420.00;1.25;645.83;0.00;0.00;0.62;;;;;3.40;1.00;;;;;;2247050;61;1261;-83
2022/03/06 02:35:38;533028.00;1.78;918.71;0.00;0.00;0.62;;;;;4.00;1.00;;;;;;2245885;61;1071;-83
2022/03/06 02:38:06;258683.00;0.86;446.88;0.00;0.00;0.62;;;;;4.00;1.00;;;;;;2248499;61;1320;-83
2022/03/06 02:40:38;459215.00;1.53;791.63;0.00;0.00;0.62;;;;;2.80;1.00;;;;;;2246021;61;1128;-84
2022/03/06 02:43:06;546293.00;1.82;941.57;0.00;0.00;0.62;;;;;1.80;1.00;;;;;;2247062;61;1127;-83
2022/03/06 02:45:34;423445.00;1.41;730.11;0.00;0.00;0.62;;;;;1.50;1.00;;;;;;2246368;61;1179;-83
2022/03/06 02:48:02;548159.00;1.83;944.79;0.00;0.00;0.62;;;;;1.50;1.00;;;;;;2246026;61;2026;-84
2022/03/06 02:50:31;458750.00;1.53;790.83;0.00;0.00;0.62;;;;;2.00;1.00;;;;;;2246150;61;1048;-81
2022/03/06 02:53:00;501679.00;1.67;864.71;0.00;0.00;0.62;;;;;2.90;1.00;;;;;;2246873;61;1176;-82
2022/03/06 02:55:28;420861.00;1.40;725.67;24115.00;0.08;42.40;;;;;3.70;1.00;;;;;;2246157;61;1153;-82
2022/03/06 02:57:57;464397.00;1.55;800.55;0.00;0.00;0.62;;;;;3.90;1.00;;;;;;2246015;61;1389;-82
2022/03/06 03:00:26;519814.00;1.73;895.94;18442.00;0.06;32.57;;;;;3.20;1.00;;;;;;2246418;61;1142;-82
2022/03/06 03:02:54;496329.00;1.65;855.50;0.00;0.00;0.62;;;;;2.20;1.00;;;;;;2250316;61;1224;-82
2022/03/06 03:05:21;513946.00;1.71;885.84;0.00;0.00;0.62;;;;;2.30;1.00;;;;;;2256241;61;1082;-82
2022/03/06 03:07:50;682022.00;2.27;1176.08;0.00;0.00;0.62;;;;;2.20;1.00;;;;;;2256133;61;1423;-81
2022/03/06 03:10:19;547125.00;1.82;943.00;0.00;0.00;0.62;;;;;2.30;1.00;;;;;;2252891;61;2005;-83
2022/03/06 03:12:47;461380.00;1.54;795.36;0.00;0.00;0.62;;;;;2.30;1.00;;;;;;2246331;61;1102;-82
2022/03/06 03:15:16;711968.00;2.37;1228.00;28151.00;0.09;49.38;;;;;2.70;1.00;;;;;;2245745;61;1247;-81
2022/03/06 03:17:44;397454.00;1.32;685.43;0.00;0.00;0.62;;;;;2.80;1.00;;;;;;2245545;61;1339;-82
2022/03/06 03:20:12;444946.00;1.48;767.09;0.00;0.00;0.62;;;;;2.50;1.00;;;;;;2245562;61;1255;-82
2022/03/06 03:22:39;515683.00;1.72;888.83;0.00;0.00;0.62;;;;;1.80;1.00;;;;;;2245694;61;1075;-82
2022/03/06 03:25:08;520180.00;1.73;896.57;0.00;0.00;0.62;;;;;1.60;1.00;;;;;;2245621;61;1061;-82
2022/03/06 03:27:35;608431.00;2.03;1048.78;0.00;0.00;0.62;;;;;2.10;1.00;;;;;;2245670;61;1344;-81
2022/03/06 03:30:03;463403.00;1.54;798.84;0.00;0.00;0.62;;;;;2.90;1.00;;;;;;2246067;61;2031;-81
2022/03/06 03:32:31;468401.00;1.56;807.44;0.00;0.00;0.62;;;;;3.20;1.00;;;;;;2249434;61;1140;-83
2022/03/06 03:34:58;368357.00;1.23;635.41;0.00;0.00;0.62;;;;;2.90;1.00;;;;;;2253319;61;1234;-82
2022/03/06 03:37:25;554154.00;1.85;955.12;0.00;0.00;0.62;;;;;2.80;1.00;;;;;;2252037;61;1252;-82
2022/03/06 03:39:52;597001.00;1.99;1029.04;0.00;0.00;0.62;;;;;2.60;1.00;;;;;;2245438;61;1403;-83
2022/03/06 03:42:19;563960.00;1.88;972.03;0.00;0.00;0.62;;;;;2.80;1.00;;;;;;2247051;61;1337;-82
2022/03/06 03:44:46;434004.00;1.45;748.27;0.00;0.00;0.62;;;;;3.10;1.00;;;;;;2246378;61;1106;-83
2022/03/06 03:47:13;534633.00;1.78;921.47;0.00;0.00;0.62;;;;;3.70;1.00;;;;;;2245881;61;1374;-82
2022/03/06 03:49:41;378621.00;1.26;653.05;0.00;0.00;0.62;;;;;4.20;1.00;;;;;;2245759;61;2469;-82
2022/03/06 03:52:08;479139.00;1.60;825.92;0.00;0.00;0.62;;;;;5.20;1.00;;;;;;2246363;61;1145;-83
2022/03/06 03:54:35;321383.00;1.07;554.68;0.00;0.00;0.62;;;;;5.60;1.00;;;;;;2246799;61;1111;-83
2022/03/06 03:57:02;368183.00;1.23;635.11;0.00;0.00;0.62;;;;;6.00;1.00;;;;;;2247253;61;1370;-83
2022/03/06 03:59:29;446425.00;1.49;769.63;0.00;0.00;0.62;;;;;4.80;1.00;;;;;;2247374;61;1149;-82
2022/03/06 04:01:56;649846.00;2.17;1120.37;0.00;0.00;0.62;;;;;4.20;1.00;;;;;;2246648;61;1091;-81
2022/03/06 04:04:24;425529.00;1.42;733.70;0.00;0.00;0.62;;;;;4.00;1.00;;;;;;2246570;61;1215;-83
2022/03/06 04:06:52;464850.00;1.55;801.33;0.00;0.00;0.62;;;;;4.30;1.00;;;;;;2246436;61;1275;-83
2022/03/06 04:09:19;383000.00;1.28;660.58;0.00;0.00;0.62;;;;;4.90;1.00;;;;;;2246908;61;1944;-83
2022/03/06 04:11:46;461730.00;1.54;795.96;0.00;0.00;0.62;;;;;5.40;1.00;;;;;;2246681;61;1133;-82
2022/03/06 04:14:13;566667.00;1.89;976.70;0.00;0.00;0.62;;;;;5.90;1.00;;;;;;2246625;61;1108;-82
2022/03/06 04:16:40;316063.00;1.05;545.53;0.00;0.00;0.62;;;;;6.20;1.00;;;;;;2250516;61;1438;-83
2022/03/06 04:19:07;396239.00;1.32;683.34;0.00;0.00;0.62;;;;;6.50;1.00;;;;;;2246454;61;2383;-83
2022/03/06 04:21:34;499399.00;1.66;860.79;0.00;0.00;0.62;;;;;6.70;1.00;;;;;;2246306;61;1143;-83
2022/03/06 04:24:02;343574.00;1.15;592.82;0.00;0.00;0.62;;;;;7.10;1.00;;;;;;2246508;61;1700;-83
2022/03/06 04:26:29;379195.00;1.26;654.04;3494.00;0.01;6.68;;;;;7.60;1.00;;;;;;2246535;61;1375;-82
2022/03/06 04:28:56;324913.00;1.08;560.74;0.00;0.00;0.62;;;;;7.80;1.00;;;;;;2248005;61;1938;-81
2022/03/06 04:31:23;508026.00;1.69;875.64;0.00;0.00;0.62;;;;;7.20;1.00;;;;;;2247289;61;1172;-81
2022/03/06 04:33:49;390616.00;1.30;673.67;0.00;0.00;0.62;;;;;6.30;1.00;;;;;;2246939;61;1159;-82
2022/03/06 04:36:16;423796.00;1.41;730.72;0.00;0.00;0.62;;;;;5.10;1.00;;;;;;2246020;61;1115;-82
2022/03/06 04:38:43;560559.00;1.87;966.16;0.00;0.00;0.62;;;;;3.70;1.00;;;;;;2245584;61;1357;-82
2022/03/06 04:41:12;117659624.00;392.20;65980188.00;46616.00;0.16;81.33;;;;;2.80;1.00;;;;;;2245370;61;1242;-82
2022/03/06 04:43:39;723997.00;2.41;1248.88;0.00;0.00;0.62;;;;;2.20;1.00;;;;;;2245675;61;1114;-82
2022/03/06 04:46:06;555766.00;1.85;957.90;0.00;0.00;0.62;;;;;1.80;1.00;;;;;;2245710;61;1233;-82
2022/03/06 04:48:33;581920.00;1.94;1003.01;0.00;0.00;0.62;;;;;1.60;1.00;;;;;;2245496;61;1923;-81
2022/03/06 04:51:00;477165.00;1.59;822.52;0.00;0.00;0.62;;;;;1.10;1.00;;;;;;2245792;61;1220;-82
2022/03/06 04:53:27;545837.00;1.82;940.78;0.00;0.00;0.62;;;;;1.20;1.00;;;;;;2245822;61;1124;-82
2022/03/06 04:55:54;627000.00;2.09;1080.86;0.00;0.00;0.62;;;;;1.30;1.00;;;;;;2246414;61;1164;-82
2022/03/06 04:58:22;623263.00;2.08;1074.40;0.00;0.00;0.62;;;;;1.00;1.00;;;;;;2245955;61;1424;-82
2022/03/06 05:00:49;621608.00;2.07;1071.54;0.00;0.00;0.62;;;;;1.10;1.00;;;;;;2246014;61;1130;-82
2022/03/06 05:03:16;698524.00;2.33;1204.68;0.00;0.00;0.62;;;;;1.50;1.00;;;;;;2246122;61;1077;-82
2022/03/06 05:05:43;631597.00;2.11;1088.81;3577.00;0.01;6.82;;;;;2.50;1.00;;;;;;2245787;61;1141;-82
2022/03/06 05:08:10;583573.00;1.95;1005.86;0.00;0.00;0.62;;;;;3.40;1.00;;;;;;2246046;61;1365;-82
2022/03/06 05:10:37;434001.00;1.45;748.27;0.00;0.00;0.62;;;;;4.30;1.00;;;;;;2245656;61;2015;-82
2022/03/06 05:13:04;478980.00;1.60;825.64;0.00;0.00;0.62;;;;;5.20;1.00;;;;;;2245885;61;1092;-82
2022/03/06 05:15:33;379969.00;1.27;655.37;0.00;0.00;0.62;;;;;5.80;1.00;;;;;;2246087;61;1231;-83
2022/03/06 05:18:00;406325.00;1.35;700.68;0.00;0.00;0.62;;;;;6.00;1.00;;;;;;2246055;61;1338;-82
2022/03/06 05:20:28;385641.00;1.29;665.12;0.00;0.00;0.62;;;;;6.40;1.00;;;;;;2246416;61;1122;-82
2022/03/06 05:22:55;408792.00;1.36;704.92;0.00;0.00;0.62;;;;;6.90;1.00;;;;;;2246001;61;1176;-82
2022/03/06 05:25:22;387228.00;1.29;667.85;0.00;0.00;0.62;;;;;7.10;1.00;;;;;;2245970;61;1235;-80
2022/03/06 05:27:49;449278.00;1.50;774.54;22886.00;0.08;40.27;;;;;7.20;1.00;;;;;;2245923;61;1287;-82
2022/03/06 05:30:16;383713.00;1.28;661.81;0.00;0.00;0.62;;;;;6.50;1.00;;;;;;2246018;61;1938;-82
2022/03/06 05:32:45;419294.00;1.40;722.98;0.00;0.00;0.62;;;;;6.60;1.00;;;;;;2245775;61;1248;-82
2022/03/06 05:35:12;367135.00;1.22;633.31;0.00;0.00;0.62;;;;;6.80;1.00;;;;;;2246313;61;1108;-82
2022/03/06 05:37:40;117551776.00;391.84;65798756.00;0.00;0.00;0.62;;;;;7.10;1.00;;;;;;2245836;61;1351;-82
2022/03/06 05:40:08;507440.00;1.69;874.63;0.00;0.00;0.62;;;;;7.60;1.00;;;;;;2245926;61;1163;-81
2022/03/06 05:42:36;393833.00;1.31;679.20;0.00;0.00;0.62;;;;;7.70;1.00;;;;;;2245722;61;1235;-82
2022/03/06 05:45:03;416652.00;1.39;718.43;0.00;0.00;0.62;;;;;7.60;1.00;;;;;;2246077;61;1136;-82
2022/03/06 05:47:30;278078.00;0.93;480.23;0.00;0.00;0.62;;;;;7.60;1.00;;;;;;2245627;61;1358;-82
2022/03/06 05:49:58;447949.00;1.49;772.25;0.00;0.00;0.62;;;;;7.50;1.00;;;;;;2245950;61;2024;-82
2022/03/06 05:52:25;368792.00;1.23;636.16;0.00;0.00;0.62;;;;;7.20;1.00;;;;;;2245842;61;1122;-83
2022/03/06 05:54:52;406668.00;1.36;701.27;0.00;0.00;0.62;;;;;7.20;1.00;;;;;;2246369;61;1172;-83
2022/03/06 05:57:19;509990.00;1.70;879.03;0.00;0.00;0.62;;;;;5.80;1.00;;;;;;2245992;61;1341;-83
2022/03/06 05:59:45;497251.00;1.66;857.09;0.00;0.00;0.62;;;;;4.80;1.00;;;;;;2246113;61;1146;-82
2022/03/06 06:02:13;565153.00;1.88;974.09;0.00;0.00;0.62;;;;;4.00;1.00;;;;;;2246205;61;1137;-82
2022/03/06 06:04:41;474112.00;1.58;817.27;0.00;0.00;0.62;;;;;4.40;1.00;;;;;;2246168;61;1145;-83
2022/03/06 06:07:10;437840.00;1.46;754.87;0.00;0.00;0.62;;;;;5.20;1.00;;;;;;2245726;61;1336;-83
2022/03/06 06:09:37;586674.00;1.96;1011.22;0.00;0.00;0.62;;;;;5.50;1.00;;;;;;2245487;61;2359;-82
2022/03/06 06:12:05;277821.00;0.93;479.79;0.00;0.00;0.62;;;;;5.70;1.00;;;;;;2245451;61;1123;-83
2022/03/06 06:14:32;585399.00;1.95;1009.02;0.00;0.00;0.62;;;;;5.50;1.00;;;;;;2245866;61;1082;-82
2022/03/06 06:17:00;496418.00;1.65;855.66;0.00;0.00;0.62;;;;;5.90;1.00;;;;;;2245384;61;1273;-82
2022/03/06 06:19:27;431963.00;1.44;744.76;0.00;0.00;0.62;;;;;6.30;1.00;;;;;;2245729;61;1087;-82
2022/03/06 06:21:54;533330.00;1.78;919.23;0.00;0.00;0.62;;;;;6.30;1.00;;;;;;2245653;61;1096;-80
2022/03/06 06:24:22;409761.00;1.37;706.59;0.00;0.00;0.62;;;;;5.30;1.00;;;;;;2245503;61;1488;-82
2022/03/06 06:26:51;625519.00;2.09;1078.30;0.00;0.00;0.62;;;;;4.40;1.00;;;;;;2245582;61;1333;-81
2022/03/06 06:29:18;508542.00;1.70;876.53;0.00;0.00;0.62;;;;;3.50;1.00;;;;;;2245394;61;2018;-82
2022/03/06 06:31:45;537704.00;1.79;926.77;0.00;0.00;0.62;;;;;3.20;1.00;;;;;;2245607;61;1261;-83
2022/03/06 06:34:13;468763.00;1.56;808.06;0.00;0.00;0.62;;;;;4.10;1.00;;;;;;2246421;61;1163;-82
2022/03/06 06:36:40;672465.00;2.24;1159.52;76367.00;0.25;132.76;;;;;5.00;1.00;;;;;;2246164;61;1239;-82
2022/03/06 06:39:09;435980.00;1.45;751.67;0.00;0.00;0.62;;;;;5.60;1.00;;;;;;2245815;61;1178;-80
2022/03/06 06:41:38;413392.00;1.38;712.83;0.00;0.00;0.62;;;;;5.90;1.00;;;;;;2245886;61;1115;-82
2022/03/06 06:44:05;400709.00;1.34;691.02;0.00;0.00;0.62;;;;;5.90;1.00;;;;;;2245949;61;1069;-83
2022/03/06 06:46:32;550107.00;1.83;948.14;0.00;0.00;0.62;;;;;6.20;1.00;;;;;;2246036;61;1364;-82
2022/03/06 06:48:59;508751.00;1.70;876.89;0.00;0.00;0.62;;;;;7.00;1.00;;;;;;2245807;61;1128;-83
2022/03/06 06:51:27;427313.00;1.42;736.77;0.00;0.00;0.62;;;;;7.70;1.00;;;;;;2247143;61;2039;-83
2022/03/06 06:53:54;405141.00;1.35;698.64;0.00;0.00;0.62;;;;;7.90;1.00;;;;;;2253244;61;1077;-82
2022/03/06 06:56:21;467287.00;1.56;805.52;0.00;0.00;0.62;;;;;7.40;1.00;;;;;;2253167;61;1164;-81
2022/03/06 06:58:49;426130.00;1.42;734.73;0.00;0.00;0.62;;;;;6.50;1.00;;;;;;2253848;61;1429;-82
2022/03/06 07:01:17;462842.00;1.54;797.87;0.00;0.00;0.62;;;;;6.20;1.00;;;;;;2252022;61;1117;-82
2022/03/06 07:03:44;562474.00;1.87;969.47;0.00;0.00;0.62;;;;;6.10;1.00;;;;;;2254359;61;1134;-82
2022/03/06 07:06:11;501013.00;1.67;863.57;0.00;0.00;0.62;;;;;5.90;1.00;;;;;;2256202;61;1126;-82
2022/03/06 07:08:38;678014.00;2.26;1169.13;84114.00;0.28;146.14;;;;;5.60;1.00;;;;;;2256076;61;1388;-82
2022/03/06 07:11:05;494477.00;1.65;852.32;10602.00;0.04;18.99;;;;;5.60;1.00;;;;;;2246462;61;2011;-82
2022/03/06 07:13:32;499362.00;1.66;860.73;0.00;0.00;0.62;;;;;4.80;1.00;;;;;;2246681;61;1150;-83
2022/03/06 07:16:00;882515.00;2.94;1525.43;0.00;0.00;0.62;;;;;4.50;1.00;;;;;;2248440;61;1133;-82
2022/03/06 07:18:27;556422.00;1.85;959.03;0.00;0.00;0.62;;;;;5.10;1.00;;;;;;2247806;61;1272;-83
2022/03/06 07:20:54;457332.00;1.52;788.39;0.00;0.00;0.62;;;;;5.50;1.00;;;;;;2247082;61;1114;-82
2022/03/06 07:23:21;503050.00;1.68;867.08;0.00;0.00;0.62;;;;;5.90;1.00;;;;;;2247143;61;1087;-83
2022/03/06 07:25:48;375051.00;1.25;646.92;0.00;0.00;0.62;;;;;6.60;1.00;;;;;;2246049;61;1104;-82
2022/03/06 07:28:15;575793.00;1.92;992.44;48402.00;0.16;84.42;;;;;6.80;1.00;;;;;;2246048;61;1245;-83
2022/03/06 07:30:42;375308.00;1.25;647.36;0.00;0.00;0.62;;;;;6.70;1.00;;;;;;2246365;61;2021;-83
2022/03/06 07:33:10;685522.00;2.29;1182.14;0.00;0.00;0.62;;;;;7.00;1.00;;;;;;2246712;61;1161;-82
2022/03/06 07:35:37;516461.00;1.72;890.17;0.00;0.00;0.62;;;;;7.10;1.00;;;;;;2246775;61;1143;-83
2022/03/06 07:38:04;463183.00;1.54;798.46;0.00;0.00;0.62;;;;;7.00;1.00;;;;;;2247161;61;1342;-83
2022/03/06 07:40:31;117296592.00;390.99;65370796.00;0.00;0.00;0.62;;;;;6.80;1.00;;;;;;2247362;61;1163;-83
2022/03/06 07:42:58;453866.00;1.51;782.43;0.00;0.00;0.62;;;;;6.70;1.00;;;;;;2246381;61;1060;-82
2022/03/06 07:45:25;545430.00;1.82;940.08;0.00;0.00;0.62;;;;;6.80;1.00;;;;;;2246677;61;1083;-83
2022/03/06 07:47:52;525896.00;1.75;906.42;0.00;0.00;0.62;;;;;6.90;1.00;;;;;;2246441;61;1331;-83
2022/03/06 07:50:21;523737.00;1.75;902.70;0.00;0.00;0.62;;;;;6.90;1.00;;;;;;2246597;61;1936;-83
2022/03/06 07:52:48;576896.00;1.92;994.34;0.00;0.00;0.62;;;;;6.90;1.00;;;;;;2246883;61;1135;-83
2022/03/06 07:55:16;661568.00;2.21;1140.65;0.00;0.00;0.62;;;;;6.50;1.00;;;;;;2246649;61;1105;-83
2022/03/06 07:57:42;452898.00;1.51;780.77;0.00;0.00;0.62;;;;;6.40;1.00;;;;;;2247018;61;1341;-83
2022/03/06 08:00:12;424232.00;1.41;731.47;0.00;0.00;0.62;;;;;6.40;1.00;;;;;;2247730;61;1110;-83
2022/03/06 08:02:39;494377.00;1.65;852.14;0.00;0.00;0.62;;;;;6.50;1.00;;;;;;2246859;61;1090;-83
2022/03/06 08:05:08;559366.00;1.86;964.11;0.00;0.00;0.62;;;;;6.20;1.00;;;;;;2246737;61;1139;-83
2022/03/06 08:07:37;524288.00;1.75;903.65;0.00;0.00;0.62;;;;;6.40;1.00;;;;;;2246997;61;1318;-83
2022/03/06 08:10:06;559315.00;1.86;964.02;0.00;0.00;0.62;;;;;6.10;1.00;;;;;;2246244;61;1947;-82
2022/03/06 08:12:33;458801.00;1.53;790.92;0.00;0.00;0.62;;;;;6.80;1.00;;;;;;2246601;61;1125;-82
2022/03/06 08:15:00;394504.00;1.32;680.36;0.00;0.00;0.62;;;;;7.00;1.00;;;;;;2246179;61;1253;-83
2022/03/06 08:17:27;490210.00;1.63;844.97;0.00;0.00;0.62;;;;;7.10;1.00;;;;;;2246138;61;1346;-82
2022/03/06 08:19:54;426909.00;1.42;736.07;0.00;0.00;0.62;;;;;6.50;1.00;;;;;;2246345;61;1164;-83
2022/03/06 08:22:22;411161.00;1.37;708.99;8035.00;0.03;14.54;;;;;6.60;1.00;;;;;;2246569;61;1152;-82
2022/03/06 08:24:51;513528.00;1.71;885.12;0.00;0.00;0.62;;;;;6.30;1.00;;;;;;2247049;61;1160;-82
2022/03/06 08:27:17;754761.00;2.52;1302.34;0.00;0.00;0.62;;;;;5.90;1.00;;;;;;2246833;61;1303;-83
2022/03/06 08:29:44;969704.00;3.23;1678.89;0.00;0.00;0.62;;;;;5.90;1.00;;;;;;2246689;61;1995;-83
2022/03/06 08:32:11;684616.00;2.28;1180.57;0.00;0.00;0.62;;;;;6.10;1.00;;;;;;2247281;61;1085;-82
2022/03/06 08:34:38;509402.00;1.70;878.01;0.00;0.00;0.62;;;;;6.40;1.00;;;;;;2246641;61;1129;-83
2022/03/06 08:37:06;427963.00;1.43;737.88;0.00;0.00;0.62;;;;;6.50;1.00;;;;;;2246912;61;1352;-83
2022/03/06 08:39:33;404082.00;1.35;696.82;0.00;0.00;0.62;;;;;6.40;1.00;;;;;;2246380;61;1135;-83
2022/03/06 08:42:01;464114.00;1.55;800.06;0.00;0.00;0.62;;;;;6.70;1.00;;;;;;2246586;61;1121;-82
2022/03/06 08:44:28;618425.00;2.06;1066.04;0.00;0.00;0.62;;;;;6.70;1.00;;;;;;2246731;61;1138;-83
2022/03/06 08:46:55;468605.00;1.56;807.79;0.00;0.00;0.62;;;;;6.60;1.00;;;;;;2248374;61;1241;-80
2022/03/06 08:49:22;597355.00;1.99;1029.65;0.00;0.00;0.62;;;;;6.00;1.00;;;;;;2249881;61;1089;-82
2022/03/06 08:51:49;547917.00;1.83;944.37;0.00;0.00;0.62;;;;;5.60;1.00;;;;;;2246928;61;2002;-82
2022/03/06 08:54:16;545256.00;1.82;939.78;0.00;0.00;0.62;;;;;5.20;1.00;;;;;;2246906;61;1155;-82
2022/03/06 08:56:43;629025.00;2.10;1084.36;0.00;0.00;0.62;;;;;5.50;1.00;;;;;;2246656;61;1350;-82
2022/03/06 08:59:11;503066.00;1.68;867.10;0.00;0.00;0.62;;;;;5.60;1.00;;;;;;2246274;61;1076;-82
2022/03/06 09:01:38;595355.00;1.98;1026.20;0.00;0.00;0.62;;;;;5.70;1.00;;;;;;2245961;61;1064;-82
2022/03/06 09:04:06;553653.00;1.85;954.26;0.00;0.00;0.62;;;;;5.70;1.00;;;;;;2245655;61;1128;-82
2022/03/06 09:06:33;588121.00;1.96;1013.71;0.00;0.00;0.62;;;;;5.90;1.00;;;;;;2245487;61;1314;-80
2022/03/06 09:09:00;578712.00;1.93;997.48;0.00;0.00;0.62;;;;;6.10;1.00;;;;;;2245391;61;1204;-82
2022/03/06 09:11:27;755544.00;2.52;1303.70;0.00;0.00;0.62;;;;;4.90;1.00;;;;;;2244970;61;1920;-82
2022/03/06 09:13:54;785789.00;2.62;1356.35;0.00;0.00;0.62;;;;;4.90;1.00;;;;;;2245789;61;1158;-81
2022/03/06 09:16:22;690885.00;2.30;1191.44;0.00;0.00;0.62;;;;;5.10;1.00;;;;;;2245685;61;1126;-81
2022/03/06 09:18:49;544485.00;1.81;938.45;0.00;0.00;0.62;;;;;4.90;1.00;;;;;;2245178;61;1338;-82
2022/03/06 09:21:16;606182.00;2.02;1044.90;0.00;0.00;0.62;;;;;5.00;1.00;;;;;;2244979;61;1077;-82
2022/03/06 09:23:43;581731.00;1.94;1002.69;0.00;0.00;0.62;;;;;5.00;1.00;;;;;;2244837;61;1155;-82
2022/03/06 09:26:10;652151.00;2.17;1124.36;0.00;0.00;0.62;;;;;4.80;1.00;;;;;;2245164;61;1171;-82
2022/03/06 09:28:37;689925.00;2.30;1189.77;0.00;0.00;0.62;;;;;4.70;1.00;;;;;;2245264;61;1300;-82
2022/03/06 09:31:04;538421.00;1.79;928.00;0.00;0.00;0.62;;;;;5.00;1.00;;;;;;2245043;61;2021;-82
2022/03/06 09:33:32;689606.00;2.30;1189.22;0.00;0.00;0.62;;;;;5.20;1.00;;;;;;2244960;61;1533;-82
2022/03/06 09:36:01;684089.00;2.28;1179.66;0.00;0.00;0.62;;;;;5.10;1.00;;;;;;2245006;61;1153;-81
2022/03/06 09:38:28;698720.00;2.33;1205.02;0.00;0.00;0.62;;;;;5.10;1.00;;;;;;2245107;61;1265;-82
2022/03/06 09:40:59;568927.00;1.90;980.60;0.00;0.00;0.62;;;;;5.20;1.00;;;;;;2245040;61;1382;-79
2022/03/06 09:43:27;121177648.00;403.93;72083120.00;0.00;0.00;0.62;;;;;5.10;1.00;;;;;;2245361;61;1135;-81
2022/03/06 09:46:04;508291.00;1.69;876.10;0.00;0.00;0.62;;;;;5.10;1.00;;;;;;2245220;61;1076;-81
2022/03/06 09:48:33;690216.00;2.30;1190.28;0.00;0.00;0.62;;;;;5.10;1.00;;;;;;2245269;61;1465;-81
2022/03/06 09:51:02;536204.00;1.79;924.18;0.00;0.00;0.62;;;;;5.00;1.00;;;;;;2245337;61;1948;-81
2022/03/06 09:53:29;663172.00;2.21;1143.43;0.00;0.00;0.62;;;;;5.00;1.00;;;;;;2245158;61;1168;-81
2022/03/06 09:55:56;785833.00;2.62;1356.43;0.00;0.00;0.62;;;;;4.90;1.00;;;;;;2245034;61;1218;-80